createdAt,value
2022-08-18T00:02:28.172Z,7.60
2022-08-18T00:04:57.981Z,7.50
2022-08-18T00:07:31.698Z,6.75
2022-08-18T00:10:00.497Z,7.20
2022-08-18T00:12:36.735Z,7.53
2022-08-18T00:15:08.076Z,8.65
2022-08-18T00:17:36.655Z,7.35
2022-08-18T00:20:11.431Z,6.97
2022-08-18T00:22:40.341Z,6.55
2022-08-18T00:25:10.697Z,5.95
2022-08-18T00:27:44.329Z,6.82
2022-08-18T00:30:18.671Z,6.40
2022-08-18T00:32:55.698Z,6.05
2022-08-18T00:35:29.546Z,6.68
2022-08-18T00:38:01.804Z,6.38
2022-08-18T00:40:38.597Z,6.30
2022-08-18T00:43:11.861Z,6.50
2022-08-18T00:45:43.251Z,5.68
2022-08-18T00:48:12.535Z,6.97
2022-08-18T00:50:55.451Z,6.22
2022-08-18T00:53:35.415Z,6.18
2022-08-18T00:56:11.485Z,6.35
2022-08-18T00:58:46.843Z,6.13
2022-08-18T01:01:16.060Z,6.30
2022-08-18T01:03:47.161Z,5.32
2022-08-18T01:06:33.077Z,6.03
2022-08-18T01:09:01.705Z,6.40
2022-08-18T01:11:29.709Z,5.90
2022-08-18T01:13:58.598Z,6.30
2022-08-18T01:16:57.037Z,6.45
2022-08-18T01:19:44.990Z,5.63
2022-08-18T01:22:33.012Z,5.78
2022-08-18T01:25:22.247Z,6.68
2022-08-18T01:28:00.787Z,5.15
2022-08-18T01:30:30.912Z,6.10
2022-08-18T01:32:58.685Z,5.95
2022-08-18T01:35:27.498Z,5.50
2022-08-18T01:37:55.543Z,5.82
2022-08-18T01:41:25.813Z,5.63
2022-08-18T01:43:15.444Z,5.90
2022-08-18T01:45:43.356Z,5.32
2022-08-18T01:48:11.566Z,5.22
2022-08-18T01:50:39.868Z,4.47
2022-08-18T01:53:11.808Z,5.40
2022-08-18T01:55:45.450Z,5.70
2022-08-18T01:58:12.625Z,5.45
2022-08-18T02:00:41.820Z,5.57
2022-08-18T02:03:14.494Z,5.25
2022-08-18T02:05:49.598Z,5.65
2022-08-18T02:08:19.232Z,5.70
2022-08-18T02:10:45.947Z,5.47
2022-08-18T02:13:12.947Z,5.40
2022-08-18T02:15:41.494Z,5.22
2022-08-18T02:18:41.393Z,5.53
2022-08-18T02:21:18.945Z,5.80
2022-08-18T02:23:53.583Z,5.95
2022-08-18T02:26:28.055Z,5.15
2022-08-18T02:28:55.024Z,5.43
2022-08-18T02:31:25.557Z,5.63
2022-08-18T02:33:52.925Z,5.57
2022-08-18T02:36:21.533Z,5.60
2022-08-18T02:38:59.341Z,5.78
2022-08-18T02:41:29.353Z,5.57
2022-08-18T02:43:58.214Z,5.20
2022-08-18T02:46:30.074Z,5.78
2022-08-18T02:49:02.564Z,4.78
2022-08-18T02:51:29.979Z,5.18
2022-08-18T02:54:00.332Z,5.40
2022-08-18T02:56:33.002Z,4.72
2022-08-18T02:59:33.646Z,5.68
2022-08-18T03:02:00.493Z,5.15
2022-08-18T03:04:30.700Z,6.55
2022-08-18T03:07:03.046Z,5.13
2022-08-18T03:09:31.723Z,6.57
2022-08-18T03:11:59.724Z,5.75
2022-08-18T03:14:27.927Z,5.80
2022-08-18T03:16:55.483Z,6.53
2022-08-18T03:19:29.052Z,6.47
2022-08-18T03:22:02.625Z,5.75
2022-08-18T03:24:32.166Z,6.93
2022-08-18T03:26:59.682Z,7.50
2022-08-18T03:29:31.117Z,6.18
2022-08-18T03:32:00.870Z,6.25
2022-08-18T03:34:27.804Z,5.15
2022-08-18T03:36:54.641Z,5.80
2022-08-18T03:39:25.107Z,6.03
2022-08-18T03:41:58.868Z,6.25
2022-08-18T03:44:35.105Z,5.88
2022-08-18T03:47:03.745Z,6.82
2022-08-18T03:49:36.611Z,7.60
2022-08-18T03:52:09.452Z,9.75
2022-08-18T03:54:38.802Z,10.65
2022-08-18T03:57:11.105Z,10.65
2022-08-18T03:59:41.455Z,9.88
2022-08-18T04:02:08.446Z,12.55
2022-08-18T04:04:35.182Z,12.15
2022-08-18T04:07:11.075Z,12.20
2022-08-18T04:09:38.733Z,13.35
2022-08-18T04:12:16.411Z,14.23
2022-08-18T04:14:48.843Z,13.75
2022-08-18T04:17:25.509Z,14.02
2022-08-18T04:19:56.959Z,14.13
2022-08-18T04:22:25.174Z,13.23
2022-08-18T04:24:53.525Z,12.52
2022-08-18T04:27:22.301Z,13.43
2022-08-18T04:29:49.602Z,13.32
2022-08-18T04:32:17.452Z,13.95
2022-08-18T04:34:44.431Z,13.38
2022-08-18T04:37:11.813Z,14.27
2022-08-18T04:39:38.754Z,13.90
2022-08-18T04:42:06.082Z,14.15
2022-08-18T04:44:34.731Z,12.52
2022-08-18T04:47:04.542Z,12.43
2022-08-18T04:49:32.083Z,13.27
2022-08-18T04:52:37.116Z,10.57
2022-08-18T04:55:06.059Z,11.70
2022-08-18T04:57:33.994Z,12.32
2022-08-18T05:00:02.765Z,12.82
2022-08-18T05:02:29.985Z,11.20
2022-08-18T05:05:01.240Z,11.35
2022-08-18T05:07:29.403Z,11.43
2022-08-18T05:09:56.248Z,12.15
2022-08-18T05:12:26.100Z,11.90
2022-08-18T05:14:59.223Z,12.98
2022-08-18T05:17:30.061Z,10.43
2022-08-18T05:20:04.481Z,13.15
2022-08-18T05:22:39.157Z,12.27
2022-08-18T05:25:09.128Z,12.82
2022-08-18T05:27:40.007Z,11.35
2022-08-18T05:30:09.194Z,11.85
2022-08-18T05:32:49.594Z,11.90
2022-08-18T05:35:47.066Z,9.85
2022-08-18T05:38:53.671Z,10.73
2022-08-18T05:41:28.078Z,11.73
2022-08-18T05:43:59.299Z,11.48
2022-08-18T05:46:59.529Z,11.52
2022-08-18T05:49:28.113Z,11.43
2022-08-18T05:52:01.922Z,10.93
2022-08-18T05:55:03.915Z,11.52
2022-08-18T05:57:43.117Z,8.82
2022-08-18T06:00:11.605Z,10.10
2022-08-18T06:03:05.263Z,10.82
2022-08-18T06:05:43.260Z,10.98
2022-08-18T06:08:14.973Z,10.38
2022-08-18T06:10:48.738Z,11.18
2022-08-18T06:13:19.981Z,9.80
2022-08-18T06:15:57.541Z,10.07
2022-08-18T06:18:54.256Z,10.23
2022-08-18T06:21:38.800Z,10.60
2022-08-18T06:24:42.963Z,10.52
2022-08-18T06:27:55.486Z,10.18
2022-08-18T06:31:04.129Z,9.27
2022-08-18T06:34:40.716Z,8.95
2022-08-18T06:37:19.928Z,9.52
2022-08-18T06:39:52.983Z,9.38
2022-08-18T06:42:30.543Z,9.57
2022-08-18T06:45:12.660Z,9.52
2022-08-18T06:47:59.487Z,9.18
2022-08-18T06:51:07.154Z,8.05
2022-08-18T06:54:01.095Z,8.57
2022-08-18T06:56:52.912Z,7.93
2022-08-18T06:59:39.558Z,8.20
2022-08-18T07:02:35.416Z,8.10
2022-08-18T07:05:15.242Z,8.13
2022-08-18T07:07:44.644Z,8.15
2022-08-18T07:10:39.113Z,7.65
2022-08-18T07:13:12.800Z,5.72
2022-08-18T07:15:45.468Z,6.03
2022-08-18T07:18:23.486Z,6.68
2022-08-18T07:21:00.127Z,6.95
2022-08-18T07:23:34.094Z,6.30
2022-08-18T07:26:18.929Z,6.40
2022-08-18T07:28:52.925Z,6.93
2022-08-18T07:31:48.147Z,5.35
2022-08-18T07:34:28.564Z,5.22
2022-08-18T07:37:12.212Z,5.80
2022-08-18T07:39:51.983Z,6.03
2022-08-18T07:43:13.577Z,5.63
2022-08-18T07:45:47.047Z,4.75
2022-08-18T07:48:38.238Z,4.78
2022-08-18T07:51:53.472Z,5.38
2022-08-18T07:55:04.823Z,4.35
2022-08-18T07:57:56.877Z,4.60
2022-08-18T08:04:26.121Z,4.90
2022-08-18T08:07:23.921Z,4.38
2022-08-18T08:10:51.627Z,4.18
2022-08-18T08:14:09.159Z,3.38
2022-08-18T08:16:50.202Z,2.92
2022-08-18T08:20:00.084Z,2.90
2022-08-18T08:22:58.153Z,2.65
2022-08-18T08:26:31.468Z,3.05
2022-08-18T08:29:22.820Z,2.50
2022-08-18T08:32:05.083Z,2.25
2022-08-18T08:34:45.269Z,1.85
2022-08-18T08:37:58.454Z,2.08
2022-08-18T08:40:56.679Z,2.25
2022-08-18T08:43:36.508Z,2.92
2022-08-18T08:46:26.007Z,3.25
2022-08-18T08:49:09.434Z,2.58
2022-08-18T08:51:57.531Z,2.35
2022-08-18T08:55:03.368Z,2.97
2022-08-18T08:57:38.980Z,2.67
2022-08-18T09:00:11.961Z,2.33
2022-08-18T09:02:58.780Z,2.40
2022-08-18T09:06:08.032Z,2.20
2022-08-18T09:09:02.060Z,2.05
2022-08-18T09:11:48.897Z,2.03
2022-08-18T09:15:09.722Z,1.67
2022-08-18T09:18:03.334Z,1.65
2022-08-18T09:21:08.961Z,1.33
2022-08-18T09:23:43.559Z,1.77
2022-08-18T09:26:39.330Z,2.03
2022-08-18T09:29:50.967Z,1.65
2022-08-18T09:32:23.031Z,1.95
2022-08-18T09:35:27.513Z,1.60
2022-08-18T09:38:33.142Z,1.80
2022-08-18T09:41:33.463Z,1.67
2022-08-18T09:44:18.041Z,1.60
2022-08-18T09:47:03.519Z,1.50
2022-08-18T09:49:31.636Z,1.58
2022-08-18T09:52:24.356Z,1.52
2022-08-18T09:54:57.003Z,1.90
2022-08-18T09:57:42.019Z,1.88
2022-08-18T10:00:12.849Z,1.63
2022-08-18T10:02:41.622Z,1.40
2022-08-18T10:05:19.213Z,1.52
2022-08-18T10:08:21.336Z,1.50
2022-08-18T10:11:20.584Z,1.42
2022-08-18T10:14:18.347Z,1.73
2022-08-18T10:17:21.474Z,1.73
2022-08-18T10:20:25.654Z,1.67
2022-08-18T10:22:55.377Z,1.98
2022-08-18T10:25:46.313Z,1.77
2022-08-18T10:29:16.055Z,2.53
2022-08-18T10:31:59.752Z,2.63
2022-08-18T10:34:52.974Z,2.20
2022-08-18T10:37:52.829Z,1.92
2022-08-18T10:40:26.446Z,1.52
2022-08-18T10:43:46.214Z,1.52
2022-08-18T10:46:39.632Z,1.42
2022-08-18T10:49:13.468Z,1.90
2022-08-18T10:52:25.713Z,1.70
2022-08-18T10:55:17.384Z,1.90
2022-08-18T10:58:33.420Z,1.77
2022-08-18T11:01:49.242Z,1.70
2022-08-18T11:07:30.830Z,1.77
2022-08-18T11:10:29.318Z,1.98
2022-08-18T11:13:29.336Z,1.90
2022-08-18T11:16:34.159Z,1.58
2022-08-18T11:19:12.190Z,1.55
2022-08-18T11:21:46.267Z,2.33
2022-08-18T11:24:26.744Z,2.13
2022-08-18T11:27:18.342Z,2.17
2022-08-18T11:29:46.694Z,1.83
2022-08-18T11:32:35.066Z,1.65
2022-08-18T11:35:13.264Z,1.38
2022-08-18T11:37:49.828Z,1.42
2022-08-18T11:43:40.697Z,1.30
2022-08-18T11:46:38.767Z,1.73
2022-08-18T11:49:54.813Z,1.10
2022-08-18T11:52:35.154Z,1.40
2022-08-18T11:55:24.055Z,1.23
2022-08-18T12:00:47.925Z,1.20
2022-08-18T12:03:43.765Z,1.70
2022-08-18T12:06:26.895Z,1.50
2022-08-18T12:09:07.469Z,1.60
2022-08-18T12:11:53.655Z,1.38
2022-08-18T12:14:35.295Z,1.30
2022-08-18T12:17:07.974Z,1.77
2022-08-18T12:19:35.106Z,1.23
2022-08-18T12:22:18.526Z,1.33
2022-08-18T12:24:48.334Z,1.38
2022-08-18T12:27:22.100Z,1.45
2022-08-18T12:29:52.772Z,1.35
2022-08-18T12:32:56.091Z,1.17
2022-08-18T12:35:12.685Z,1.30
2022-08-18T12:40:33.427Z,1.25
2022-08-18T12:43:00.253Z,1.27
2022-08-18T12:45:28.155Z,2.15
2022-08-18T12:47:55.858Z,1.60
2022-08-18T12:50:31.834Z,1.10
2022-08-18T12:53:03.212Z,1.10
2022-08-18T12:55:43.670Z,1.30
2022-08-18T12:58:13.468Z,1.00
2022-08-18T13:00:43.844Z,1.08
2022-08-18T13:03:13.019Z,1.23
2022-08-18T13:05:41.824Z,1.00
2022-08-18T13:08:30.764Z,1.00
2022-08-18T13:11:20.810Z,1.20
2022-08-18T13:13:58.975Z,1.38
2022-08-18T13:16:53.279Z,1.30
2022-08-18T13:19:23.925Z,1.10
2022-08-18T13:21:58.757Z,0.90
2022-08-18T13:24:26.286Z,0.82
2022-08-18T13:26:53.247Z,0.93
2022-08-18T13:29:21.957Z,0.93
2022-08-18T13:31:57.521Z,1.00
2022-08-18T13:34:30.090Z,0.80
2022-08-18T13:36:57.999Z,0.90
2022-08-18T13:39:33.625Z,1.00
2022-08-18T13:42:01.560Z,1.10
2022-08-18T13:44:52.708Z,1.10
2022-08-18T13:47:22.616Z,0.90
2022-08-18T13:49:57.994Z,0.90
2022-08-18T13:52:34.691Z,1.73
2022-08-18T13:55:08.296Z,0.80
2022-08-18T13:57:37.299Z,0.90
2022-08-18T14:00:27.840Z,1.20
2022-08-18T14:03:03.547Z,0.95
2022-08-18T14:05:36.937Z,1.00
2022-08-18T14:08:22.173Z,0.80
2022-08-18T14:10:54.992Z,0.90
2022-08-18T14:13:24.777Z,0.70
2022-08-18T14:15:56.115Z,0.80
2022-08-18T14:18:28.933Z,0.82
2022-08-18T14:21:23.186Z,1.02
2022-08-18T14:24:14.291Z,1.15
2022-08-18T14:26:49.950Z,1.30
2022-08-18T14:29:46.167Z,0.98
2022-08-18T14:32:07.127Z,0.98
2022-08-18T14:34:34.520Z,1.20
2022-08-18T14:37:09.912Z,1.25
2022-08-18T14:39:39.267Z,0.95
2022-08-18T14:42:08.331Z,0.90
2022-08-18T14:44:39.092Z,0.80
2022-08-18T14:47:08.406Z,0.70
2022-08-18T14:49:35.985Z,0.80
2022-08-18T14:52:14.448Z,1.10
2022-08-18T14:54:46.229Z,0.93
2022-08-18T14:57:15.295Z,1.10
2022-08-18T14:59:49.444Z,1.15
2022-08-18T15:02:16.303Z,1.17
2022-08-18T15:04:55.845Z,1.45
2022-08-18T15:07:24.999Z,1.30
2022-08-18T15:10:14.451Z,1.08
2022-08-18T15:12:42.104Z,1.00
2022-08-18T15:15:12.886Z,0.98
2022-08-18T15:17:50.127Z,1.02
2022-08-18T15:20:29.427Z,0.93
2022-08-18T15:23:25.033Z,0.73
2022-08-18T15:25:56.518Z,1.67
2022-08-18T15:28:27.016Z,1.00
2022-08-18T15:33:42.097Z,0.93
2022-08-18T15:36:10.236Z,1.40
2022-08-18T15:38:38.360Z,1.10
2022-08-18T15:41:06.163Z,1.10
2022-08-18T15:43:45.852Z,1.10
2022-08-18T15:46:17.916Z,1.10
2022-08-18T15:48:44.864Z,0.88
2022-08-18T15:51:12.592Z,1.10
2022-08-18T15:53:44.585Z,1.17
2022-08-18T15:56:16.039Z,0.90
2022-08-18T15:58:48.443Z,0.80
2022-08-18T16:01:29.839Z,1.00
2022-08-18T16:04:03.198Z,0.80
2022-08-18T16:06:32.544Z,0.80
2022-08-18T16:09:04.394Z,0.60
2022-08-18T16:11:41.697Z,0.77
2022-08-18T16:14:10.574Z,1.00
2022-08-18T16:16:37.446Z,0.88
2022-08-18T16:19:07.872Z,1.20
2022-08-18T16:21:37.791Z,1.20
2022-08-18T16:24:05.029Z,0.80
2022-08-18T16:26:31.842Z,0.70
2022-08-18T16:29:01.383Z,0.90
2022-08-18T16:31:29.350Z,0.70
2022-08-18T16:33:57.878Z,0.80
2022-08-18T16:36:25.681Z,0.70
2022-08-18T16:38:54.509Z,0.80
2022-08-18T16:41:26.641Z,0.88
2022-08-18T16:43:54.418Z,0.80
2022-08-18T16:46:27.005Z,0.68
2022-08-18T16:48:57.510Z,0.80
2022-08-18T16:51:28.109Z,0.65
2022-08-18T16:53:57.259Z,0.93
2022-08-18T16:56:28.329Z,1.13
2022-08-18T16:59:14.595Z,0.70
2022-08-18T17:02:02.367Z,0.82
2022-08-18T17:04:35.274Z,0.70
2022-08-18T17:07:05.126Z,0.60
2022-08-18T17:09:34.470Z,0.90
2022-08-18T17:12:02.205Z,0.75
2022-08-18T17:14:31.850Z,0.70
2022-08-18T17:17:00.480Z,0.77
2022-08-18T17:19:35.793Z,0.77
2022-08-18T17:22:05.194Z,0.80
2022-08-18T17:24:35.383Z,0.90
2022-08-18T17:27:25.594Z,0.80
2022-08-18T17:30:04.216Z,1.10
2022-08-18T17:32:46.722Z,0.90
2022-08-18T17:35:32.888Z,0.90
2022-08-18T17:38:27.808Z,0.70
2022-08-18T17:40:57.936Z,0.60
2022-08-18T17:43:35.301Z,0.93
2022-08-18T17:46:14.841Z,0.80
2022-08-18T17:49:02.465Z,0.70
2022-08-18T17:51:43.586Z,0.80
2022-08-18T17:54:38.155Z,0.80
2022-08-18T17:57:16.758Z,0.60
2022-08-18T18:00:33.448Z,0.60
2022-08-18T18:03:03.758Z,0.70
2022-08-18T18:05:57.851Z,0.70
2022-08-18T18:09:09.437Z,0.82
2022-08-18T18:11:47.406Z,0.75
2022-08-18T18:14:35.706Z,1.05
2022-08-18T18:17:02.428Z,0.68
2022-08-18T18:19:33.221Z,0.90
2022-08-18T18:22:25.603Z,0.75
2022-08-18T18:25:04.636Z,0.88
2022-08-18T18:27:50.479Z,0.77
2022-08-18T18:30:27.435Z,0.68
2022-08-18T18:33:04.645Z,0.90
2022-08-18T18:35:57.094Z,0.90
2022-08-18T18:38:38.977Z,0.80
2022-08-18T18:41:29.271Z,0.70
2022-08-18T18:44:09.943Z,0.90
2022-08-18T18:47:17.253Z,0.95
2022-08-18T18:49:58.465Z,3.65
2022-08-18T18:52:47.871Z,2.00
2022-08-18T18:55:34.843Z,1.05
2022-08-18T18:58:03.723Z,1.23
2022-08-18T19:00:53.891Z,0.80
2022-08-18T19:04:00.934Z,1.00
2022-08-18T19:06:50.852Z,1.73
2022-08-18T19:09:29.512Z,1.45
2022-08-18T19:12:22.657Z,1.63
2022-08-18T19:15:08.675Z,0.98
2022-08-18T19:18:03.219Z,1.15
2022-08-18T19:20:43.196Z,2.90
2022-08-18T19:23:50.732Z,1.80
2022-08-18T19:26:35.862Z,1.42
2022-08-18T19:29:14.265Z,1.15
2022-08-18T19:32:19.909Z,1.20
2022-08-18T19:34:52.516Z,1.40
2022-08-18T19:37:32.725Z,1.42
2022-08-18T19:40:20.765Z,1.10
2022-08-18T19:42:53.330Z,1.20
2022-08-18T19:45:57.786Z,1.20
2022-08-18T19:49:03.338Z,1.15
2022-08-18T19:51:39.977Z,1.00
2022-08-18T19:54:25.301Z,1.30
2022-08-18T19:57:12.291Z,1.17
2022-08-18T20:00:09.737Z,1.10
2022-08-18T20:03:14.410Z,1.20
2022-08-18T20:07:08.914Z,1.00
2022-08-18T20:10:06.990Z,1.10
2022-08-18T20:13:05.887Z,0.90
2022-08-18T20:16:01.656Z,1.27
2022-08-18T20:18:45.882Z,1.08
2022-08-18T20:21:15.772Z,1.10
2022-08-18T20:24:08.569Z,1.20
2022-08-18T20:26:37.655Z,1.17
2022-08-18T20:29:14.113Z,1.40
2022-08-18T20:31:49.983Z,1.02
2022-08-18T20:34:23.981Z,1.10
2022-08-18T20:36:53.314Z,1.10
2022-08-18T20:39:47.405Z,1.00
2022-08-18T20:42:24.414Z,1.15
2022-08-18T20:44:58.475Z,1.10
2022-08-18T20:47:44.042Z,1.20
2022-08-18T20:50:54.141Z,1.17
2022-08-18T20:53:49.880Z,1.63
2022-08-18T20:57:02.547Z,1.40
2022-08-18T20:59:35.605Z,1.52
2022-08-18T21:02:29.815Z,1.45
2022-08-18T21:05:00.230Z,1.48
2022-08-18T21:08:03.569Z,1.75
2022-08-18T21:10:35.785Z,2.42
2022-08-18T21:13:05.859Z,1.42
2022-08-18T21:15:38.030Z,1.30
2022-08-18T21:18:17.267Z,1.17
2022-08-18T21:20:47.220Z,1.70
2022-08-18T21:23:22.311Z,1.30
2022-08-18T21:26:06.887Z,1.20
2022-08-18T21:28:39.479Z,1.13
2022-08-18T21:31:43.732Z,1.23
2022-08-18T21:34:33.596Z,1.48
2022-08-18T21:37:10.296Z,1.48
2022-08-18T21:39:59.359Z,1.42
2022-08-18T21:42:40.754Z,1.90
2022-08-18T21:45:21.496Z,1.20
2022-08-18T21:47:56.902Z,1.60
2022-08-18T21:50:33.659Z,1.48
2022-08-18T21:53:19.347Z,1.20
2022-08-18T21:55:54.921Z,1.90
2022-08-18T21:58:32.607Z,1.40
2022-08-18T22:01:30.133Z,1.70
2022-08-18T22:03:59.635Z,1.60
2022-08-18T22:06:40.692Z,1.80
2022-08-18T22:09:28.978Z,1.40
2022-08-18T22:12:45.159Z,1.58
2022-08-18T22:15:17.907Z,1.33
2022-08-18T22:18:00.135Z,1.30
2022-08-18T22:20:36.071Z,1.33
2022-08-18T22:23:31.209Z,1.40
2022-08-18T22:26:32.559Z,1.40
2022-08-18T22:29:47.158Z,1.40
2022-08-18T22:32:14.088Z,1.38
2022-08-18T22:34:42.750Z,1.50
2022-08-18T22:37:13.671Z,1.50
2022-08-18T22:39:53.649Z,1.67
2022-08-18T22:42:25.852Z,1.75
2022-08-18T22:44:53.512Z,1.45
2022-08-18T22:47:23.878Z,1.83
2022-08-18T22:49:51.132Z,1.60
2022-08-18T22:52:31.652Z,1.70
2022-08-18T22:55:06.537Z,1.55
2022-08-18T22:57:38.135Z,1.48
2022-08-18T23:00:15.733Z,1.23
2022-08-18T23:02:43.497Z,1.60
2022-08-18T23:05:11.571Z,1.60
2022-08-18T23:07:38.766Z,1.38
2022-08-18T23:10:08.217Z,1.60
2022-08-18T23:12:41.220Z,1.52
2022-08-18T23:15:11.675Z,1.45
2022-08-18T23:17:43.350Z,1.70
2022-08-18T23:20:17.503Z,1.60
2022-08-18T23:22:45.727Z,1.58
2022-08-18T23:25:13.996Z,1.75
2022-08-18T23:27:42.760Z,2.03
2022-08-18T23:30:13.207Z,1.55
2022-08-18T23:32:40.128Z,1.80
2022-08-18T23:35:07.306Z,1.52
2022-08-18T23:37:34.016Z,1.67
2022-08-18T23:40:00.834Z,1.70
2022-08-18T23:42:27.674Z,1.67
2022-08-18T23:44:58.832Z,2.15
2022-08-18T23:47:25.603Z,1.80
2022-08-18T23:49:53.249Z,1.80
2022-08-18T23:52:21.312Z,1.90
2022-08-18T23:54:50.616Z,1.58
2022-08-18T23:57:17.320Z,2.03
2022-08-18T23:59:44.052Z,1.70
